createdAt,value
2022-08-21T00:00:18.275Z,19.20
2022-08-21T00:03:06.767Z,19.10
2022-08-21T00:05:38.305Z,19.00
2022-08-21T00:08:05.682Z,19.00
2022-08-21T00:10:32.600Z,19.10
2022-08-21T00:13:01.131Z,19.20
2022-08-21T00:15:30.848Z,19.20
2022-08-21T00:17:58.024Z,19.10
2022-08-21T00:20:25.393Z,19.00
2022-08-21T00:22:52.918Z,19.00
2022-08-21T00:25:24.372Z,19.10
2022-08-21T00:27:53.683Z,19.10
2022-08-21T00:30:23.398Z,19.10
2022-08-21T00:32:52.137Z,19.10
2022-08-21T00:35:22.454Z,19.10
2022-08-21T00:37:49.326Z,19.00
2022-08-21T00:40:20.387Z,19.00
2022-08-21T00:42:53.172Z,19.00
2022-08-21T00:45:22.683Z,19.00
2022-08-21T00:47:50.965Z,18.90
2022-08-21T00:50:22.094Z,18.80
2022-08-21T00:52:51.903Z,18.80
2022-08-21T00:55:21.063Z,18.70
2022-08-21T00:57:54.179Z,18.70
2022-08-21T01:00:29.770Z,18.60
2022-08-21T01:02:59.142Z,18.60
2022-08-21T01:05:26.250Z,18.50
2022-08-21T01:07:53.396Z,18.60
2022-08-21T01:10:24.391Z,18.60
2022-08-21T01:12:54.057Z,18.70
2022-08-21T01:15:24.066Z,18.80
2022-08-21T01:17:51.434Z,18.80
2022-08-21T01:20:18.340Z,18.90
2022-08-21T01:22:45.260Z,18.90
2022-08-21T01:25:16.090Z,19.00
2022-08-21T01:27:43.483Z,19.00
2022-08-21T01:30:24.046Z,19.00
2022-08-21T01:32:52.405Z,19.10
2022-08-21T01:35:21.442Z,19.10
2022-08-21T01:37:49.085Z,19.10
2022-08-21T01:40:17.707Z,19.10
2022-08-21T01:42:45.528Z,19.20
2022-08-21T01:45:13.526Z,19.10
2022-08-21T01:47:40.485Z,19.10
2022-08-21T01:50:11.031Z,19.00
2022-08-21T01:52:37.962Z,19.10
2022-08-21T01:55:07.662Z,19.10
2022-08-21T01:57:35.147Z,19.20
2022-08-21T02:00:02.331Z,19.10
2022-08-21T02:02:29.350Z,19.10
2022-08-21T02:04:56.219Z,19.10
2022-08-21T02:07:23.111Z,19.10
2022-08-21T02:09:50.355Z,19.10
2022-08-21T02:12:17.835Z,19.10
2022-08-21T02:14:44.718Z,19.00
2022-08-21T02:17:11.569Z,19.00
2022-08-21T02:19:40.370Z,18.90
2022-08-21T02:22:10.579Z,18.90
2022-08-21T02:24:54.421Z,18.90
2022-08-21T02:27:26.322Z,18.90
2022-08-21T02:29:58.434Z,18.90
2022-08-21T02:32:26.827Z,18.90
2022-08-21T02:34:53.979Z,18.80
2022-08-21T02:37:21.220Z,18.70
2022-08-21T02:39:48.203Z,18.90
2022-08-21T02:42:15.303Z,18.90
2022-08-21T02:44:42.236Z,18.80
2022-08-21T02:47:09.128Z,18.80
2022-08-21T02:49:35.995Z,18.70
2022-08-21T02:52:03.130Z,18.70
2022-08-21T02:54:29.998Z,18.70
2022-08-21T02:56:56.854Z,18.70
2022-08-21T02:59:23.736Z,18.60
2022-08-21T03:01:50.636Z,18.60
2022-08-21T03:04:17.609Z,18.50
2022-08-21T03:06:44.525Z,18.50
2022-08-21T03:09:11.420Z,18.40
2022-08-21T03:11:38.391Z,18.40
2022-08-21T03:14:06.296Z,18.30
2022-08-21T03:16:35.304Z,18.30
2022-08-21T03:19:03.219Z,18.20
2022-08-21T03:21:30.155Z,18.20
2022-08-21T03:23:57.028Z,18.20
2022-08-21T03:26:25.267Z,18.10
2022-08-21T03:28:52.430Z,18.20
2022-08-21T03:31:19.442Z,18.20
2022-08-21T03:33:46.422Z,18.20
2022-08-21T03:36:13.440Z,18.30
2022-08-21T03:38:41.381Z,18.40
2022-08-21T03:41:08.791Z,18.40
2022-08-21T03:43:36.618Z,18.50
2022-08-21T03:46:05.109Z,18.50
2022-08-21T03:48:33.015Z,18.50
2022-08-21T03:51:00.046Z,18.50
2022-08-21T03:53:27.708Z,18.50
2022-08-21T03:55:55.109Z,18.50
2022-08-21T03:58:25.487Z,18.50
2022-08-21T04:00:55.019Z,18.50
2022-08-21T04:03:22.039Z,18.50
2022-08-21T04:05:49.162Z,18.40
2022-08-21T04:08:19.624Z,18.30
2022-08-21T04:10:49.462Z,18.30
2022-08-21T04:13:16.405Z,18.30
2022-08-21T04:15:43.664Z,18.40
2022-08-21T04:18:10.916Z,18.60
2022-08-21T04:20:38.343Z,18.70
2022-08-21T04:23:05.257Z,18.90
2022-08-21T04:25:32.816Z,18.90
2022-08-21T04:27:59.915Z,19.10
2022-08-21T04:30:28.126Z,19.20
2022-08-21T04:32:57.813Z,19.30
2022-08-21T04:35:27.445Z,19.30
2022-08-21T04:37:54.387Z,19.40
2022-08-21T04:40:23.038Z,19.40
2022-08-21T04:42:56.976Z,19.50
2022-08-21T04:45:30.378Z,19.50
2022-08-21T04:48:00.515Z,19.60
2022-08-21T04:50:48.677Z,19.60
2022-08-21T04:53:20.902Z,19.70
2022-08-21T04:55:48.907Z,19.80
2022-08-21T04:58:20.023Z,19.80
2022-08-21T05:00:47.418Z,19.80
2022-08-21T05:03:17.554Z,19.80
2022-08-21T05:05:45.071Z,19.90
2022-08-21T05:08:16.265Z,20.00
2022-08-21T05:10:45.409Z,20.00
2022-08-21T05:13:13.884Z,19.90
2022-08-21T05:15:41.423Z,19.90
2022-08-21T05:18:08.379Z,19.90
2022-08-21T05:20:36.427Z,19.90
2022-08-21T05:23:11.270Z,19.90
2022-08-21T05:25:38.707Z,19.90
2022-08-21T05:28:06.861Z,19.80
2022-08-21T05:30:34.746Z,19.80
2022-08-21T05:33:03.294Z,19.80
2022-08-21T05:35:30.840Z,19.70
2022-08-21T05:37:58.107Z,19.70
2022-08-21T05:40:25.566Z,19.70
2022-08-21T05:42:55.515Z,19.70
2022-08-21T05:45:41.718Z,19.70
2022-08-21T05:48:17.314Z,19.80
2022-08-21T05:50:45.757Z,19.80
2022-08-21T05:53:14.054Z,19.90
2022-08-21T05:55:45.759Z,19.90
2022-08-21T05:58:15.513Z,19.90
2022-08-21T06:00:43.223Z,20.00
2022-08-21T06:03:17.933Z,20.10
2022-08-21T06:05:46.601Z,20.20
2022-08-21T06:08:14.239Z,20.30
2022-08-21T06:10:41.374Z,20.20
2022-08-21T06:13:08.237Z,20.30
2022-08-21T06:15:35.419Z,20.30
2022-08-21T06:18:02.597Z,20.30
2022-08-21T06:20:29.498Z,20.30
2022-08-21T06:22:56.552Z,20.40
2022-08-21T06:25:23.620Z,20.40
2022-08-21T06:27:50.493Z,20.40
2022-08-21T06:30:17.530Z,20.40
2022-08-21T06:32:44.983Z,20.50
2022-08-21T06:35:12.484Z,20.50
2022-08-21T06:37:39.350Z,20.50
2022-08-21T06:40:12.527Z,20.50
2022-08-21T06:42:41.372Z,20.60
2022-08-21T06:45:10.721Z,20.60
2022-08-21T06:47:37.694Z,20.60
2022-08-21T06:50:08.502Z,20.60
2022-08-21T06:52:37.571Z,20.70
2022-08-21T06:55:08.157Z,20.70
2022-08-21T06:57:35.463Z,20.80
2022-08-21T07:00:05.861Z,20.80
2022-08-21T07:02:34.559Z,20.80
2022-08-21T07:05:01.874Z,20.90
2022-08-21T07:07:44.497Z,20.90
2022-08-21T07:10:12.078Z,20.90
2022-08-21T07:12:50.800Z,20.90
2022-08-21T07:15:19.722Z,21.00
2022-08-21T07:17:46.594Z,21.00
2022-08-21T07:20:13.947Z,21.00
2022-08-21T07:22:42.023Z,21.10
2022-08-21T07:25:09.615Z,21.10
2022-08-21T07:27:36.734Z,21.30
2022-08-21T07:30:05.814Z,21.40
2022-08-21T07:32:32.796Z,21.50
2022-08-21T07:34:59.695Z,21.60
2022-08-21T07:37:26.814Z,21.80
2022-08-21T07:39:53.728Z,21.70
2022-08-21T07:42:20.617Z,21.80
2022-08-21T07:44:47.576Z,21.90
2022-08-21T07:47:17.785Z,22.00
2022-08-21T07:50:05.622Z,22.00
2022-08-21T07:52:33.591Z,22.20
2022-08-21T07:55:05.843Z,22.40
2022-08-21T07:57:33.379Z,22.50
2022-08-21T08:00:00.299Z,22.60
2022-08-21T08:02:29.659Z,22.50
2022-08-21T08:05:04.737Z,22.60
2022-08-21T08:07:31.891Z,22.50
2022-08-21T08:09:59.442Z,22.50
2022-08-21T08:12:30.343Z,22.40
2022-08-21T08:15:02.061Z,22.40
2022-08-21T08:17:29.506Z,22.40
2022-08-21T08:19:56.530Z,22.30
2022-08-21T08:22:25.058Z,22.20
2022-08-21T08:24:53.147Z,22.10
2022-08-21T08:27:21.247Z,22.20
2022-08-21T08:29:48.580Z,22.30
2022-08-21T08:32:16.255Z,22.50
2022-08-21T08:34:43.120Z,22.60
2022-08-21T08:37:11.211Z,22.70
2022-08-21T08:39:39.127Z,22.60
2022-08-21T08:42:33.477Z,22.60
2022-08-21T08:45:03.649Z,22.60
2022-08-21T08:47:33.586Z,22.70
2022-08-21T08:50:22.738Z,22.90
2022-08-21T08:53:01.892Z,23.00
2022-08-21T08:55:41.210Z,23.00
2022-08-21T08:58:10.912Z,23.20
2022-08-21T09:00:39.718Z,23.60
2022-08-21T09:03:06.573Z,23.70
2022-08-21T09:05:54.223Z,23.80
2022-08-21T09:08:34.598Z,23.60
2022-08-21T09:11:06.354Z,23.70
2022-08-21T09:13:57.111Z,23.70
2022-08-21T09:16:47.518Z,23.50
2022-08-21T09:19:25.088Z,23.70
2022-08-21T09:21:54.860Z,23.80
2022-08-21T09:24:51.945Z,23.90
2022-08-21T09:27:21.839Z,23.90
2022-08-21T09:29:53.014Z,24.00
2022-08-21T09:32:24.065Z,24.10
2022-08-21T09:35:12.766Z,24.00
2022-08-21T09:37:52.701Z,23.70
2022-08-21T09:40:31.535Z,23.90
2022-08-21T09:43:05.597Z,24.10
2022-08-21T09:45:33.840Z,24.40
2022-08-21T09:48:22.207Z,24.50
2022-08-21T09:50:54.813Z,24.30
2022-08-21T09:53:32.585Z,24.30
2022-08-21T09:56:25.200Z,24.30
2022-08-21T09:58:52.982Z,24.30
2022-08-21T10:01:24.187Z,23.90
2022-08-21T10:04:08.288Z,23.80
2022-08-21T10:06:36.039Z,23.90
2022-08-21T10:09:06.519Z,24.10
2022-08-21T10:11:33.934Z,24.10
2022-08-21T10:14:34.016Z,24.20
2022-08-21T10:17:15.780Z,24.20
2022-08-21T10:19:54.791Z,24.50
2022-08-21T10:22:34.155Z,24.90
2022-08-21T10:25:13.706Z,25.20
2022-08-21T10:28:11.334Z,25.20
2022-08-21T10:30:58.925Z,25.30
2022-08-21T10:33:34.630Z,25.40
2022-08-21T10:36:21.400Z,25.20
2022-08-21T10:39:12.068Z,25.50
2022-08-21T10:41:55.514Z,25.80
2022-08-21T10:45:07.376Z,26.30
2022-08-21T10:47:57.981Z,26.10
2022-08-21T10:50:50.025Z,26.40
2022-08-21T10:53:26.624Z,26.40
2022-08-21T10:56:01.009Z,26.30
2022-08-21T10:58:38.950Z,25.80
2022-08-21T11:01:15.556Z,26.00
2022-08-21T11:03:46.615Z,26.30
2022-08-21T11:06:26.192Z,26.40
2022-08-21T11:09:04.443Z,26.70
2022-08-21T11:11:41.909Z,26.90
2022-08-21T11:15:09.195Z,27.10
2022-08-21T11:18:18.958Z,26.40
2022-08-21T11:21:20.812Z,25.70
2022-08-21T11:24:05.775Z,25.60
2022-08-21T11:27:11.898Z,25.40
2022-08-21T11:29:41.491Z,25.40
2022-08-21T11:32:44.990Z,25.00
2022-08-21T11:35:11.816Z,25.30
2022-08-21T11:37:59.731Z,24.90
2022-08-21T11:40:48.343Z,24.90
2022-08-21T11:43:39.191Z,25.40
2022-08-21T11:46:34.171Z,25.00
2022-08-21T11:49:25.745Z,25.30
2022-08-21T11:52:31.403Z,25.70
2022-08-21T11:55:01.322Z,25.80
2022-08-21T11:57:35.731Z,25.70
2022-08-21T12:00:12.017Z,25.40
2022-08-21T12:02:44.323Z,25.40
2022-08-21T12:05:24.266Z,25.70
2022-08-21T12:08:06.299Z,26.00
2022-08-21T12:10:37.291Z,26.00
2022-08-21T12:13:35.668Z,26.40
2022-08-21T12:16:15.151Z,26.70
2022-08-21T12:18:43.182Z,27.00
2022-08-21T12:21:26.563Z,26.70
2022-08-21T12:24:02.079Z,26.30
2022-08-21T12:26:31.116Z,26.30
2022-08-21T12:29:12.762Z,26.40
2022-08-21T12:31:54.711Z,26.50
2022-08-21T12:34:26.577Z,26.70
2022-08-21T12:37:05.243Z,26.80
2022-08-21T12:39:35.098Z,26.20
2022-08-21T12:42:07.414Z,25.80
2022-08-21T12:44:52.270Z,25.40
2022-08-21T12:47:34.166Z,25.40
2022-08-21T12:50:13.372Z,25.30
2022-08-21T12:53:00.482Z,25.40
2022-08-21T12:55:33.087Z,25.20
2022-08-21T12:58:00.737Z,25.10
2022-08-21T13:00:30.926Z,25.00
2022-08-21T13:02:58.745Z,25.20
2022-08-21T13:05:36.600Z,24.80
2022-08-21T13:08:09.347Z,24.90
2022-08-21T13:10:38.010Z,25.00
2022-08-21T13:13:25.523Z,24.70
2022-08-21T13:16:01.471Z,24.30
2022-08-21T13:18:32.922Z,24.10
2022-08-21T13:21:15.704Z,23.90
2022-08-21T13:23:44.989Z,23.80
2022-08-21T13:26:20.713Z,23.70
2022-08-21T13:28:49.818Z,23.80
2022-08-21T13:31:32.531Z,23.80
2022-08-21T13:33:59.421Z,23.90
2022-08-21T13:36:35.135Z,24.00
2022-08-21T13:39:06.018Z,23.70
2022-08-21T13:41:37.728Z,23.80
2022-08-21T13:44:18.336Z,23.90
2022-08-21T13:46:48.915Z,23.60
2022-08-21T13:49:20.187Z,23.50
2022-08-21T13:51:48.955Z,23.50
2022-08-21T13:54:17.133Z,23.40
2022-08-21T13:56:46.842Z,23.50
2022-08-21T13:59:29.815Z,23.40
2022-08-21T14:02:01.203Z,23.40
2022-08-21T14:04:36.070Z,23.40
2022-08-21T14:07:15.499Z,23.50
2022-08-21T14:09:44.282Z,23.40
2022-08-21T14:12:50.311Z,23.20
2022-08-21T14:15:23.339Z,22.90
2022-08-21T14:17:50.297Z,22.50
2022-08-21T14:20:37.602Z,22.40
2022-08-21T14:23:04.518Z,22.10
2022-08-21T14:25:46.063Z,22.00
2022-08-21T14:28:29.598Z,22.10
2022-08-21T14:30:57.696Z,22.20
2022-08-21T14:33:28.851Z,22.20
2022-08-21T14:35:56.218Z,22.50
2022-08-21T14:38:25.747Z,22.80
2022-08-21T14:41:00.582Z,23.10
2022-08-21T14:43:28.987Z,23.30
2022-08-21T14:45:56.986Z,23.40
2022-08-21T14:48:23.918Z,23.40
2022-08-21T14:50:50.814Z,23.20
2022-08-21T14:53:17.905Z,22.90
2022-08-21T14:56:03.229Z,22.70
2022-08-21T14:58:30.550Z,22.70
2022-08-21T15:00:59.137Z,22.70
2022-08-21T15:03:27.029Z,22.60
2022-08-21T15:05:53.926Z,22.60
2022-08-21T15:08:20.907Z,22.50
2022-08-21T15:11:10.535Z,22.50
2022-08-21T15:13:36.996Z,22.40
2022-08-21T15:16:04.338Z,22.20
2022-08-21T15:18:32.012Z,22.00
2022-08-21T15:20:59.106Z,21.90
2022-08-21T15:23:26.049Z,21.80
2022-08-21T15:25:54.306Z,21.90
2022-08-21T15:28:23.644Z,21.90
2022-08-21T15:30:51.859Z,21.90
2022-08-21T15:33:19.850Z,21.80
2022-08-21T15:35:47.237Z,21.70
2022-08-21T15:38:15.686Z,21.60
2022-08-21T15:40:46.123Z,21.50
2022-08-21T15:43:29.679Z,21.40
2022-08-21T15:46:01.417Z,21.40
2022-08-21T15:48:28.911Z,21.30
2022-08-21T15:50:55.967Z,21.30
2022-08-21T15:53:22.876Z,21.30
2022-08-21T15:55:50.307Z,21.20
2022-08-21T15:58:18.323Z,21.20
2022-08-21T16:00:45.737Z,21.10
2022-08-21T16:03:17.633Z,21.00
2022-08-21T16:05:50.099Z,21.00
2022-08-21T16:08:16.979Z,21.00
2022-08-21T16:10:43.851Z,21.00
2022-08-21T16:13:21.074Z,20.90
2022-08-21T16:15:47.942Z,20.90
2022-08-21T16:18:15.070Z,20.90
2022-08-21T16:20:42.009Z,20.90
2022-08-21T16:23:09.051Z,20.80
2022-08-21T16:25:38.323Z,20.80
2022-08-21T16:28:09.883Z,20.80
2022-08-21T16:30:39.145Z,20.70
2022-08-21T16:33:06.838Z,20.70
2022-08-21T16:35:33.820Z,20.60
2022-08-21T16:38:01.091Z,20.50
2022-08-21T16:40:28.589Z,20.30
2022-08-21T16:42:56.352Z,20.20
2022-08-21T16:45:23.389Z,20.20
2022-08-21T16:47:51.387Z,20.20
2022-08-21T16:50:22.693Z,20.10
2022-08-21T16:52:49.990Z,20.10
2022-08-21T16:55:17.419Z,20.00
2022-08-21T16:57:44.662Z,20.10
2022-08-21T17:00:13.211Z,20.00
2022-08-21T17:02:47.451Z,19.90
2022-08-21T17:05:15.403Z,19.70
2022-08-21T17:07:43.805Z,19.60
2022-08-21T17:10:13.193Z,19.60
2022-08-21T17:12:43.317Z,19.50
2022-08-21T17:15:22.261Z,19.50
2022-08-21T17:17:49.928Z,19.50
2022-08-21T17:20:18.242Z,19.40
2022-08-21T17:22:46.415Z,19.30
2022-08-21T17:25:13.968Z,19.20
2022-08-21T17:27:44.169Z,19.40
2022-08-21T17:30:12.705Z,19.30
2022-08-21T17:32:40.194Z,19.20
2022-08-21T17:35:08.049Z,19.10
2022-08-21T17:37:35.176Z,19.10
2022-08-21T17:40:05.873Z,19.10
2022-08-21T17:42:33.972Z,19.10
2022-08-21T17:45:01.431Z,19.10
2022-08-21T17:47:28.475Z,19.00
2022-08-21T17:49:55.461Z,19.10
2022-08-21T17:52:22.698Z,19.30
2022-08-21T17:54:49.615Z,19.30
2022-08-21T17:57:22.817Z,19.30
2022-08-21T17:59:51.015Z,19.30
2022-08-21T18:02:22.147Z,19.30
2022-08-21T18:04:50.850Z,19.30
2022-08-21T18:07:31.979Z,19.30
2022-08-21T18:10:08.049Z,19.20
2022-08-21T18:12:35.804Z,19.10
2022-08-21T18:15:03.207Z,19.10
2022-08-21T18:17:33.199Z,19.00
2022-08-21T18:20:02.068Z,18.90
2022-08-21T18:22:29.108Z,18.80
2022-08-21T18:24:56.156Z,18.80
2022-08-21T18:27:26.767Z,18.70
2022-08-21T18:29:58.253Z,18.70
2022-08-21T18:32:30.985Z,18.70
2022-08-21T18:35:00.867Z,18.70
2022-08-21T18:37:27.819Z,18.60
2022-08-21T18:39:54.717Z,18.50
2022-08-21T18:42:28.523Z,18.50
2022-08-21T18:45:01.997Z,18.50
2022-08-21T18:47:35.329Z,18.40
2022-08-21T18:50:02.235Z,18.40
2022-08-21T18:52:29.679Z,18.40
2022-08-21T18:54:56.558Z,18.40
2022-08-21T18:57:28.661Z,18.30
2022-08-21T18:59:56.155Z,18.30
2022-08-21T19:02:23.421Z,18.40
2022-08-21T19:04:51.545Z,18.40
2022-08-21T19:07:19.976Z,18.30
2022-08-21T19:10:07.711Z,18.40
2022-08-21T19:12:35.081Z,18.40
2022-08-21T19:15:02.805Z,18.40
2022-08-21T19:17:30.036Z,18.30
2022-08-21T19:20:01.485Z,18.30
2022-08-21T19:22:28.362Z,18.30
2022-08-21T19:24:55.272Z,18.20
2022-08-21T19:27:23.121Z,18.10
2022-08-21T19:29:50.535Z,18.10
2022-08-21T19:32:20.230Z,18.10
2022-08-21T19:34:50.063Z,18.10
2022-08-21T19:37:20.403Z,18.10
2022-08-21T19:39:50.152Z,18.10
2022-08-21T19:42:21.555Z,18.10
2022-08-21T19:44:51.922Z,18.10
2022-08-21T19:47:23.402Z,18.10
2022-08-21T19:49:59.323Z,18.00
2022-08-21T19:52:26.924Z,17.90
2022-08-21T19:54:53.818Z,17.90
2022-08-21T19:57:20.845Z,17.90
2022-08-21T19:59:47.938Z,17.90
2022-08-21T20:02:18.539Z,17.90
2022-08-21T20:04:53.259Z,17.90
2022-08-21T20:07:26.364Z,17.90
2022-08-21T20:09:54.614Z,17.80
2022-08-21T20:12:22.666Z,17.70
2022-08-21T20:14:50.785Z,17.80
2022-08-21T20:17:19.806Z,17.80
2022-08-21T20:19:53.956Z,17.70
2022-08-21T20:22:22.569Z,17.70
2022-08-21T20:24:51.077Z,17.80
2022-08-21T20:30:14.414Z,17.70
2022-08-21T20:32:43.537Z,17.70
2022-08-21T20:35:12.530Z,17.70
2022-08-21T20:37:40.642Z,17.70
2022-08-21T20:40:11.523Z,17.70
2022-08-21T20:42:40.599Z,17.70
2022-08-21T20:45:08.843Z,17.80
2022-08-21T20:47:37.619Z,17.80
2022-08-21T20:50:13.013Z,17.80
2022-08-21T20:52:42.187Z,17.80
2022-08-21T20:55:12.652Z,17.80
2022-08-21T20:58:04.006Z,17.80
2022-08-21T21:00:36.916Z,17.80
2022-08-21T21:03:15.151Z,17.70
2022-08-21T21:05:57.152Z,17.80
2022-08-21T21:11:45.619Z,17.90
2022-08-21T21:14:22.728Z,17.90
2022-08-21T21:17:02.792Z,17.90
2022-08-21T21:19:45.257Z,18.00
2022-08-21T21:22:20.237Z,18.00
2022-08-21T21:24:51.644Z,18.20
2022-08-21T21:27:55.484Z,18.20
2022-08-21T21:30:57.495Z,18.20
2022-08-21T21:33:25.031Z,18.50
2022-08-21T21:35:59.000Z,18.60
2022-08-21T21:38:51.451Z,18.60
2022-08-21T21:41:27.891Z,18.50
2022-08-21T21:44:16.389Z,18.60
2022-08-21T21:47:01.467Z,18.60
2022-08-21T21:49:49.488Z,18.60
2022-08-21T21:52:27.552Z,18.60
2022-08-21T21:55:00.803Z,18.50
2022-08-21T21:57:55.154Z,18.50
2022-08-21T22:00:26.466Z,18.70
2022-08-21T22:03:05.511Z,18.70
2022-08-21T22:05:35.485Z,18.80
2022-08-21T22:08:17.225Z,18.80
2022-08-21T22:10:53.969Z,18.90
2022-08-21T22:13:38.710Z,18.90
2022-08-21T22:16:07.669Z,18.90
2022-08-21T22:18:58.889Z,18.90
2022-08-21T22:21:34.466Z,18.90
2022-08-21T22:24:13.834Z,18.90
2022-08-21T22:26:48.371Z,18.90
2022-08-21T22:29:21.649Z,19.10
2022-08-21T22:32:28.806Z,19.10
2022-08-21T22:35:26.531Z,19.10
2022-08-21T22:37:56.725Z,19.10
2022-08-21T22:40:29.749Z,19.20
2022-08-21T22:43:09.634Z,19.30
2022-08-21T22:46:04.215Z,19.30
2022-08-21T22:48:36.653Z,19.30
2022-08-21T22:51:15.484Z,19.30
2022-08-21T22:53:53.619Z,19.30
2022-08-21T22:56:49.437Z,19.30
2022-08-21T22:59:29.382Z,19.30
2022-08-21T23:02:23.821Z,19.30
2022-08-21T23:04:51.661Z,19.20
2022-08-21T23:07:43.410Z,19.10
2022-08-21T23:10:27.939Z,19.00
2022-08-21T23:13:06.200Z,18.80
2022-08-21T23:15:48.377Z,18.70
2022-08-21T23:18:23.716Z,18.60
2022-08-21T23:21:06.995Z,18.50
2022-08-21T23:23:43.183Z,18.50
2022-08-21T23:26:36.386Z,18.40
2022-08-21T23:29:12.842Z,18.30
2022-08-21T23:32:35.327Z,18.20
2022-08-21T23:35:46.770Z,18.10
2022-08-21T23:38:41.583Z,18.10
2022-08-21T23:41:34.504Z,18.00
2022-08-21T23:44:38.019Z,18.10
2022-08-21T23:47:33.786Z,18.00
2022-08-21T23:50:25.766Z,18.10
2022-08-21T23:53:09.121Z,18.10
2022-08-21T23:56:13.075Z,18.10
2022-08-21T23:59:28.251Z,18.10
